Time;durP1;ratioP1;P1;durP2;ratioP2;P2;SDS_P1;SDS_P2;PMS_P1;PMS_P2;Temp;Humidity;BMP_temperature;BMP_pressure;BME280_temperature;BME280_humidity;BME280_pressure;Samples;Min_cycle;Max_cycle;Signal;HPM_P1;HPM_P2
2023/04/28 00:01:08;;;;;;;9.27;7.87;;;;;;;;;;5034519;28;20237;-72
2023/04/28 00:03:34;;;;;;;11.03;8.80;;;;;;;;;;5034920;28;20202;-72
2023/04/28 00:06:00;;;;;;;16.13;9.03;;;;;;;;;;5035851;28;20175;-72
2023/04/28 00:08:26;;;;;;;13.03;8.13;;;;;;;;;;5035683;28;20215;-72
2023/04/28 00:10:52;;;;;;;18.40;9.60;;;;;;;;;;5035041;28;20182;-72
2023/04/28 00:13:18;;;;;;;15.17;9.73;;;;;;;;;;5034961;28;20231;-73
2023/04/28 00:15:44;;;;;;;16.20;9.10;;;;;;;;;;5035310;28;20182;-72
2023/04/28 00:18:10;;;;;;;12.80;9.67;;;;;;;;;;5033056;28;20553;-73
2023/04/28 00:20:36;;;;;;;14.87;9.37;;;;;;;;;;5015157;28;20541;-72
2023/04/28 00:23:02;;;;;;;12.43;8.83;;;;;;;;;;5032873;28;20249;-72
2023/04/28 00:25:28;;;;;;;13.93;9.47;;;;;;;;;;5015219;28;20669;-72
2023/04/28 00:27:54;;;;;;;12.00;9.37;;;;;;;;;;5033262;28;20645;-72
2023/04/28 00:30:20;;;;;;;12.53;9.13;;;;;;;;;;5015441;28;20210;-73
2023/04/28 00:32:46;;;;;;;11.50;8.93;;;;;;;;;;5033620;28;20203;-72
2023/04/28 00:35:12;;;;;;;12.03;9.73;;;;;;;;;;5034055;28;20179;-72
2023/04/28 00:37:38;;;;;;;13.13;9.93;;;;;;;;;;5018806;28;20637;-72
2023/04/28 00:40:05;;;;;;;16.23;10.07;;;;;;;;;;5036449;28;20195;-72
2023/04/28 00:42:31;;;;;;;12.47;10.20;;;;;;;;;;5036716;28;20189;-72
2023/04/28 00:44:57;;;;;;;13.53;9.73;;;;;;;;;;5036515;28;20219;-72
2023/04/28 00:47:23;;;;;;;15.43;10.43;;;;;;;;;;5036391;28;20183;-72
2023/04/28 00:49:49;;;;;;;15.50;11.13;;;;;;;;;;5021226;28;20712;-72
2023/04/28 00:52:15;;;;;;;13.37;10.83;;;;;;;;;;5044958;28;20203;-72
2023/04/28 00:54:46;;;;;;;17.70;11.23;;;;;;;;;;5026595;28;20195;-72
2023/04/28 00:57:12;;;;;;;14.93;11.17;;;;;;;;;;5026339;28;20172;-72
2023/04/28 00:59:38;;;;;;;14.80;12.20;;;;;;;;;;5028397;28;20223;-72
2023/04/28 01:02:06;;;;;;;15.73;12.07;;;;;;;;;;5043193;28;20179;-72
2023/04/28 01:04:33;;;;;;;16.47;12.13;;;;;;;;;;5024455;28;20187;-72
2023/04/28 01:07:00;;;;;;;15.87;12.13;;;;;;;;;;5027229;28;20207;-72
2023/04/28 01:09:26;;;;;;;15.43;12.57;;;;;;;;;;5042682;28;20704;-72
2023/04/28 01:11:52;;;;;;;17.37;12.83;;;;;;;;;;5040214;28;20235;-72
2023/04/28 01:14:18;;;;;;;18.03;12.60;;;;;;;;;;5041609;28;20199;-72
2023/04/28 01:16:44;;;;;;;16.97;12.73;;;;;;;;;;5035879;28;20179;-72
2023/04/28 01:19:14;;;;;;;16.73;11.93;;;;;;;;;;5018021;28;20237;-72
2023/04/28 01:21:40;;;;;;;21.53;13.60;;;;;;;;;;5036082;28;20228;-72
2023/04/28 01:24:06;;;;;;;16.43;12.83;;;;;;;;;;5018231;28;20215;-72
2023/04/28 01:26:32;;;;;;;19.13;13.70;;;;;;;;;;5025902;28;20182;-72
2023/04/28 01:28:59;;;;;;;16.80;13.93;;;;;;;;;;5055178;28;20187;-72
2023/04/28 01:31:25;;;;;;;14.93;13.33;;;;;;;;;;5019822;28;20183;-72
2023/04/28 01:33:51;;;;;;;17.40;13.07;;;;;;;;;;5017825;28;20207;-72
2023/04/28 01:36:17;;;;;;;15.00;12.73;;;;;;;;;;5017817;28;20684;-72
2023/04/28 01:38:43;;;;;;;18.53;13.03;;;;;;;;;;5017662;28;20203;-72
2023/04/28 01:41:09;;;;;;;20.13;12.87;;;;;;;;;;5035265;28;20221;-72
2023/04/28 01:43:35;;;;;;;15.10;12.83;;;;;;;;;;5017489;28;20179;-72
2023/04/28 01:46:01;;;;;;;15.40;12.70;;;;;;;;;;5035178;28;20190;-71
2023/04/28 01:48:27;;;;;;;19.60;13.43;;;;;;;;;;5016832;28;20191;-72
2023/04/28 01:50:53;;;;;;;18.33;13.77;;;;;;;;;;5035396;28;20187;-71
2023/04/28 01:53:19;;;;;;;21.83;14.50;;;;;;;;;;5034983;28;20206;-72
2023/04/28 01:55:46;;;;;;;16.57;13.80;;;;;;;;;;5017305;28;20179;-72
2023/04/28 01:58:12;;;;;;;19.53;14.40;;;;;;;;;;5034853;28;20257;-72
2023/04/28 02:00:38;;;;;;;17.00;14.37;;;;;;;;;;5034978;28;20191;-72
2023/04/28 02:03:04;;;;;;;17.83;13.50;;;;;;;;;;5017038;28;20187;-72
2023/04/28 02:05:30;;;;;;;19.13;14.27;;;;;;;;;;5017180;28;20193;-71
2023/04/28 02:07:56;;;;;;;16.87;14.20;;;;;;;;;;5034803;28;20207;-72
2023/04/28 02:10:22;;;;;;;20.37;13.27;;;;;;;;;;5016902;28;20219;-72
2023/04/28 02:12:48;;;;;;;24.17;14.73;;;;;;;;;;5017487;28;20206;-72
2023/04/28 02:15:14;;;;;;;17.77;14.20;;;;;;;;;;5016899;28;20183;-72
2023/04/28 02:17:40;;;;;;;19.37;14.37;;;;;;;;;;5034610;28;20182;-72
2023/04/28 02:20:06;;;;;;;22.07;14.83;;;;;;;;;;5016719;28;20574;-72
2023/04/28 02:22:32;;;;;;;19.50;14.33;;;;;;;;;;5016740;28;20186;-71
2023/04/28 02:24:58;;;;;;;17.50;14.63;;;;;;;;;;5034586;28;20171;-72
2023/04/28 02:27:24;;;;;;;17.90;14.10;;;;;;;;;;5034271;28;20216;-71
2023/04/28 02:29:54;;;;;;;17.13;14.33;;;;;;;;;;5034422;28;20195;-71
2023/04/28 02:32:20;;;;;;;23.00;15.20;;;;;;;;;;5034318;28;20203;-71
2023/04/28 02:34:46;;;;;;;22.00;14.93;;;;;;;;;;5016624;28;20179;-71
2023/04/28 02:37:12;;;;;;;21.60;14.53;;;;;;;;;;5034243;28;20182;-70
2023/04/28 02:39:38;;;;;;;17.40;14.30;;;;;;;;;;5016608;28;20199;-70
2023/04/28 02:42:04;;;;;;;16.30;14.53;;;;;;;;;;5016537;28;20179;-71
2023/04/28 02:44:31;;;;;;;21.27;15.07;;;;;;;;;;5034392;28;20622;-71
2023/04/28 02:46:57;;;;;;;22.33;15.33;;;;;;;;;;5034391;28;20657;-71
2023/04/28 02:49:22;;;;;;;19.83;16.70;;;;;;;;;;5034172;28;20202;-70
2023/04/28 02:51:48;;;;;;;24.20;16.43;;;;;;;;;;5016969;28;20210;-70
2023/04/28 02:54:14;;;;;;;23.77;16.90;;;;;;;;;;5034898;28;20229;-70
2023/04/28 02:56:41;;;;;;;22.37;16.37;;;;;;;;;;5016465;28;20186;-71
2023/04/28 02:59:07;;;;;;;25.43;17.63;;;;;;;;;;5015254;28;20232;-71
2023/04/28 03:01:33;;;;;;;23.43;16.53;;;;;;;;;;5034547;28;20229;-71
2023/04/28 03:03:59;;;;;;;24.23;17.77;;;;;;;;;;5016661;28;20183;-70
2023/04/28 03:06:25;;;;;;;24.03;17.37;;;;;;;;;;5034279;28;20552;-71
2023/04/28 03:08:51;;;;;;;24.37;17.73;;;;;;;;;;5016532;28;20226;-70
2023/04/28 03:11:17;;;;;;;23.70;17.97;;;;;;;;;;5034429;28;20179;-71
2023/04/28 03:13:43;;;;;;;22.00;18.27;;;;;;;;;;5016771;28;20708;-70
2023/04/28 03:16:09;;;;;;;27.13;18.30;;;;;;;;;;5034413;28;20556;-71
2023/04/28 03:18:35;;;;;;;19.27;16.83;;;;;;;;;;5016910;28;20202;-71
2023/04/28 03:21:01;;;;;;;25.50;18.70;;;;;;;;;;5016263;28;20181;-71
2023/04/28 03:23:27;;;;;;;23.50;18.20;;;;;;;;;;5033389;28;20210;-71
2023/04/28 03:25:53;;;;;;;24.57;18.87;;;;;;;;;;5015870;28;20183;-71
2023/04/28 03:28:19;;;;;;;22.67;17.63;;;;;;;;;;5033304;28;20745;-71
2023/04/28 03:30:45;;;;;;;23.07;18.80;;;;;;;;;;5015602;28;20233;-71
2023/04/28 03:33:10;;;;;;;27.57;19.40;;;;;;;;;;5015423;28;20217;-71
2023/04/28 03:35:36;;;;;;;25.47;17.97;;;;;;;;;;5015573;28;20179;-71
2023/04/28 03:38:02;;;;;;;21.97;17.53;;;;;;;;;;5033468;28;20179;-70
2023/04/28 03:40:28;;;;;;;25.97;17.80;;;;;;;;;;5033238;28;20258;-71
2023/04/28 03:42:54;;;;;;;23.83;17.90;;;;;;;;;;5015555;28;20175;-71
2023/04/28 03:45:20;;;;;;;27.20;18.53;;;;;;;;;;5033383;28;20183;-71
2023/04/28 03:47:46;;;;;;;21.93;19.30;;;;;;;;;;5033121;28;20179;-72
2023/04/28 03:50:12;;;;;;;26.77;18.83;;;;;;;;;;5033220;28;20203;-71
2023/04/28 03:52:38;;;;;;;28.63;20.07;;;;;;;;;;5015322;28;20206;-71
2023/04/28 03:55:04;;;;;;;32.67;19.80;;;;;;;;;;5015308;28;20186;-71
2023/04/28 03:57:30;;;;;;;33.43;20.63;;;;;;;;;;5032972;28;20179;-71
2023/04/28 03:59:56;;;;;;;43.77;21.93;;;;;;;;;;5032975;28;20217;-71
2023/04/28 04:02:22;;;;;;;35.37;22.07;;;;;;;;;;5032906;28;20215;-71
2023/04/28 04:04:48;;;;;;;33.43;20.17;;;;;;;;;;5015279;28;20183;-71
2023/04/28 04:07:14;;;;;;;31.40;21.67;;;;;;;;;;5033245;28;20253;-72
2023/04/28 04:09:40;;;;;;;36.57;20.57;;;;;;;;;;5015240;28;20254;-72
2023/04/28 04:12:06;;;;;;;27.07;19.17;;;;;;;;;;5018827;28;20183;-71
2023/04/28 04:14:32;;;;;;;30.17;19.80;;;;;;;;;;5037081;28;20198;-72
2023/04/28 04:16:58;;;;;;;27.80;21.17;;;;;;;;;;5019129;28;20649;-71
2023/04/28 04:19:25;;;;;;;30.80;20.47;;;;;;;;;;5036799;28;20229;-72
2023/04/28 04:21:51;;;;;;;32.10;19.93;;;;;;;;;;5036688;28;20265;-72
2023/04/28 04:24:17;;;;;;;28.23;18.83;;;;;;;;;;5019218;28;20655;-72
2023/04/28 04:26:43;;;;;;;26.20;18.23;;;;;;;;;;5036976;28;20175;-72
2023/04/28 04:29:09;;;;;;;24.87;18.77;;;;;;;;;;5036593;28;20199;-72
2023/04/28 04:31:35;;;;;;;21.00;17.50;;;;;;;;;;5036971;28;20184;-72
2023/04/28 04:34:01;;;;;;;24.90;17.37;;;;;;;;;;5036510;28;20203;-71
2023/04/28 04:36:27;;;;;;;23.03;17.23;;;;;;;;;;5036501;28;20229;-71
2023/04/28 04:38:53;;;;;;;24.07;16.47;;;;;;;;;;5018628;28;20281;-71
2023/04/28 04:41:19;;;;;;;22.70;15.80;;;;;;;;;;5036533;28;20179;-71
2023/04/28 04:43:45;;;;;;;19.97;16.10;;;;;;;;;;5037038;28;20638;-71
2023/04/28 04:46:11;;;;;;;22.30;15.80;;;;;;;;;;5036419;28;20189;-71
2023/04/28 04:48:37;;;;;;;18.23;15.70;;;;;;;;;;5036161;28;20199;-71
2023/04/28 04:51:03;;;;;;;22.37;15.87;;;;;;;;;;5036446;28;20179;-71
2023/04/28 04:53:29;;;;;;;23.43;15.83;;;;;;;;;;5038262;28;20656;-72
2023/04/28 04:55:55;;;;;;;25.67;16.23;;;;;;;;;;5047246;28;20221;-72
2023/04/28 04:58:21;;;;;;;28.03;16.63;;;;;;;;;;5048227;28;20190;-71
2023/04/28 05:00:47;;;;;;;27.43;16.00;;;;;;;;;;5047400;28;20230;-71
2023/04/28 05:03:13;;;;;;;23.37;15.70;;;;;;;;;;5047064;28;20185;-72
2023/04/28 05:05:39;;;;;;;27.13;16.60;;;;;;;;;;5030315;28;20207;-71
2023/04/28 05:08:05;;;;;;;23.53;15.67;;;;;;;;;;5048802;28;20182;-70
2023/04/28 05:10:31;;;;;;;21.17;16.47;;;;;;;;;;5018827;28;20210;-72
2023/04/28 05:12:57;;;;;;;18.20;14.80;;;;;;;;;;5036046;28;20267;-72
2023/04/28 05:15:23;;;;;;;25.17;15.60;;;;;;;;;;5050086;22;20779;-69
2023/04/28 05:17:49;;;;;;;19.63;15.07;;;;;;;;;;5016114;28;20168;-69
2023/04/28 05:20:15;;;;;;;22.97;15.70;;;;;;;;;;5016584;28;20669;-69
2023/04/28 05:22:41;;;;;;;20.97;15.43;;;;;;;;;;4997669;28;20211;-69
2023/04/28 05:25:07;;;;;;;18.87;15.80;;;;;;;;;;5016260;28;20195;-69
2023/04/28 05:27:33;;;;;;;22.60;15.97;;;;;;;;;;5015743;28;20184;-70
2023/04/28 05:29:59;;;;;;;21.87;16.27;;;;;;;;;;4997934;28;20675;-67
2023/04/28 05:32:25;;;;;;;23.90;16.07;;;;;;;;;;5015636;28;20207;-67
2023/04/28 05:34:51;;;;;;;22.07;15.47;;;;;;;;;;4997947;28;20202;-68
2023/04/28 05:37:17;;;;;;;23.50;16.13;;;;;;;;;;4998028;28;20211;-68
2023/04/28 05:39:43;;;;;;;24.60;15.87;;;;;;;;;;5015676;28;20176;-68
2023/04/28 05:42:09;;;;;;;21.27;15.87;;;;;;;;;;5015816;28;20294;-68
2023/04/28 05:44:35;;;;;;;19.57;14.97;;;;;;;;;;4998005;28;20711;-68
2023/04/28 05:47:00;;;;;;;18.87;15.27;;;;;;;;;;5015603;28;20226;-68
2023/04/28 05:49:26;;;;;;;22.80;15.17;;;;;;;;;;5015494;28;20668;-69
2023/04/28 05:51:52;;;;;;;23.57;14.60;;;;;;;;;;5015756;28;20519;-68
2023/04/28 05:54:18;;;;;;;20.43;14.53;;;;;;;;;;5015940;28;20574;-68
2023/04/28 05:56:44;;;;;;;17.33;13.83;;;;;;;;;;5015247;28;20714;-68
2023/04/28 05:59:10;;;;;;;19.87;15.20;;;;;;;;;;4997782;28;20800;-68
2023/04/28 06:01:37;;;;;;;18.90;14.77;;;;;;;;;;5015094;28;20619;-68
2023/04/28 06:04:03;;;;;;;14.90;12.87;;;;;;;;;;4997543;28;20677;-69
2023/04/28 06:06:30;;;;;;;15.83;12.90;;;;;;;;;;5015143;28;20172;-69
2023/04/28 06:08:56;;;;;;;16.63;12.50;;;;;;;;;;4997624;28;20176;-68
2023/04/28 06:11:22;;;;;;;14.17;12.70;;;;;;;;;;4997565;28;20278;-68
2023/04/28 06:13:48;;;;;;;15.83;13.03;;;;;;;;;;5015018;28;20257;-68
2023/04/28 06:16:16;;;;;;;15.07;11.97;;;;;;;;;;4997304;28;20215;-68
2023/04/28 06:18:42;;;;;;;16.73;11.87;;;;;;;;;;5015034;28;20200;-68
2023/04/28 06:21:08;;;;;;;15.87;12.23;;;;;;;;;;5014895;28;20183;-68
2023/04/28 06:23:34;;;;;;;17.97;12.73;;;;;;;;;;5014807;28;20184;-69
2023/04/28 06:26:00;;;;;;;20.77;12.47;;;;;;;;;;5014840;28;20219;-68
2023/04/28 06:28:26;;;;;;;17.63;12.03;;;;;;;;;;5014773;28;20215;-68
2023/04/28 06:30:52;;;;;;;25.17;13.53;;;;;;;;;;5014730;28;20184;-68
2023/04/28 06:33:18;;;;;;;19.60;12.80;;;;;;;;;;4996781;28;20721;-67
2023/04/28 06:35:44;;;;;;;22.97;12.10;;;;;;;;;;5014461;28;20200;-67
2023/04/28 06:38:10;;;;;;;20.10;11.43;;;;;;;;;;5014635;28;20646;-69
2023/04/28 06:40:36;;;;;;;17.77;11.03;;;;;;;;;;5014463;28;20180;-68
2023/04/28 06:43:02;;;;;;;23.60;11.70;;;;;;;;;;4996773;28;20187;-67
2023/04/28 06:45:28;;;;;;;18.03;10.87;;;;;;;;;;5014311;28;20199;-68
2023/04/28 06:47:54;;;;;;;18.03;10.60;;;;;;;;;;4996663;28;20194;-68
2023/04/28 06:50:21;;;;;;;20.47;11.80;;;;;;;;;;5014304;28;20176;-67
2023/04/28 06:52:47;;;;;;;15.73;10.83;;;;;;;;;;5014175;28;20206;-68
2023/04/28 06:55:13;;;;;;;11.27;10.07;;;;;;;;;;4996418;28;20203;-68
2023/04/28 06:57:41;;;;;;;14.70;9.83;;;;;;;;;;5014625;28;20195;-68
2023/04/28 07:00:07;;;;;;;10.30;8.87;;;;;;;;;;4996448;28;20565;-68
2023/04/28 07:02:34;;;;;;;11.13;8.90;;;;;;;;;;4996516;28;20295;-68
2023/04/28 07:05:00;;;;;;;11.07;9.50;;;;;;;;;;5014353;28;20226;-67
2023/04/28 07:07:26;;;;;;;12.97;9.13;;;;;;;;;;5014361;28;20558;-68
2023/04/28 07:09:52;;;;;;;13.03;8.80;;;;;;;;;;5014189;28;20230;-68
2023/04/28 07:12:18;;;;;;;13.87;9.10;;;;;;;;;;5014111;28;20180;-68
2023/04/28 07:14:44;;;;;;;11.57;8.87;;;;;;;;;;5014178;28;20223;-69
2023/04/28 07:17:10;;;;;;;11.83;8.70;;;;;;;;;;5014827;28;20208;-68
2023/04/28 07:19:36;;;;;;;12.93;8.70;;;;;;;;;;4997155;28;20211;-65
2023/04/28 07:22:02;;;;;;;12.00;8.50;;;;;;;;;;5013991;28;20180;-65
2023/04/28 07:24:29;;;;;;;11.83;7.80;;;;;;;;;;5013811;28;20231;-65
2023/04/28 07:26:56;;;;;;;12.20;8.60;;;;;;;;;;5013829;28;20266;-65
2023/04/28 07:29:22;;;;;;;10.40;8.17;;;;;;;;;;5013653;28;20187;-65
2023/04/28 07:31:48;;;;;;;14.23;8.47;;;;;;;;;;5013594;28;20180;-65
2023/04/28 07:34:14;;;;;;;11.57;8.23;;;;;;;;;;4995989;28;20298;-65
2023/04/28 07:36:40;;;;;;;11.80;8.30;;;;;;;;;;4996195;28;20211;-65
2023/04/28 07:39:06;;;;;;;11.17;8.80;;;;;;;;;;5013678;28;20535;-65
2023/04/28 07:41:36;;;;;;;12.93;9.63;;;;;;;;;;4996132;28;20184;-66
2023/04/28 07:44:03;;;;;;;12.00;9.83;;;;;;;;;;5013789;28;20187;-67
2023/04/28 07:46:29;;;;;;;14.47;10.37;;;;;;;;;;4995445;28;20191;-66
2023/04/28 07:48:55;;;;;;;11.50;9.87;;;;;;;;;;5013973;28;20241;-66
2023/04/28 07:51:21;;;;;;;15.97;10.63;;;;;;;;;;5013817;28;20184;-65
2023/04/28 07:53:47;;;;;;;13.13;11.30;;;;;;;;;;4995895;28;20207;-65
2023/04/28 07:56:13;;;;;;;15.80;11.83;;;;;;;;;;4996045;28;20298;-66
2023/04/28 07:58:39;;;;;;;17.03;13.27;;;;;;;;;;5013866;28;20183;-66
2023/04/28 08:01:05;;;;;;;17.27;10.07;;;;;;;;;;4995935;28;20187;-65
2023/04/28 08:03:31;;;;;;;11.37;9.93;;;;;;;;;;5013909;28;20187;-65
2023/04/28 08:05:58;;;;;;;13.27;10.90;;;;;;;;;;5013308;28;20286;-64
2023/04/28 08:08:24;;;;;;;17.90;11.40;;;;;;;;;;5013662;28;20546;-64
2023/04/28 08:10:51;;;;;;;18.90;12.33;;;;;;;;;;5013509;28;20176;-66
2023/04/28 08:13:17;;;;;;;15.47;12.77;;;;;;;;;;4995600;28;20215;-65
2023/04/28 08:15:43;;;;;;;13.77;11.43;;;;;;;;;;4995780;28;20218;-65
2023/04/28 08:18:09;;;;;;;14.43;11.47;;;;;;;;;;4995727;28;20271;-65
2023/04/28 08:20:35;;;;;;;18.87;11.20;;;;;;;;;;5013359;28;20180;-66
2023/04/28 08:23:01;;;;;;;20.10;13.80;;;;;;;;;;5013544;28;20179;-66
2023/04/28 08:25:27;;;;;;;14.57;12.53;;;;;;;;;;4995540;28;20670;-67
2023/04/28 08:27:54;;;;;;;13.93;12.50;;;;;;;;;;4995550;28;20677;-68
2023/04/28 08:30:20;;;;;;;13.57;11.93;;;;;;;;;;5013717;28;20263;-66
2023/04/28 08:32:46;;;;;;;16.73;11.97;;;;;;;;;;4995421;28;20697;-65
2023/04/28 08:35:14;;;;;;;17.07;13.10;;;;;;;;;;4995469;28;20200;-66
2023/04/28 08:37:40;;;;;;;22.87;13.87;;;;;;;;;;4995401;28;20190;-66
2023/04/28 08:40:08;;;;;;;20.20;13.13;;;;;;;;;;5012877;28;20531;-67
2023/04/28 08:42:34;;;;;;;21.60;14.40;;;;;;;;;;4995385;28;20219;-65
2023/04/28 08:45:02;;;;;;;20.53;14.97;;;;;;;;;;5012922;28;20697;-66
2023/04/28 08:47:32;;;;;;;21.47;13.17;;;;;;;;;;4995276;28;20184;-66
2023/04/28 08:50:01;;;;;;;25.23;14.03;;;;;;;;;;4995413;28;20188;-66
2023/04/28 08:52:29;;;;;;;19.67;13.53;;;;;;;;;;5013332;28;20203;-66
2023/04/28 08:54:56;;;;;;;21.80;13.93;;;;;;;;;;5012746;28;20584;-66
2023/04/28 08:57:22;;;;;;;18.43;14.00;;;;;;;;;;5013660;28;20277;-66
2023/04/28 08:59:48;;;;;;;16.13;13.17;;;;;;;;;;4998785;28;20617;-65
2023/04/28 09:02:14;;;;;;;20.13;12.53;;;;;;;;;;4998747;28;20186;-66
2023/04/28 09:04:40;;;;;;;16.37;12.03;;;;;;;;;;4998564;28;20290;-66
2023/04/28 09:07:12;;;;;;;17.33;13.17;;;;;;;;;;5016293;28;20234;-66
2023/04/28 09:09:39;;;;;;;20.27;13.17;;;;;;;;;;5016333;28;20539;-65
2023/04/28 09:12:06;;;;;;;17.73;13.77;;;;;;;;;;5016420;28;20184;-66
2023/04/28 09:14:33;;;;;;;21.80;13.57;;;;;;;;;;5015722;28;20239;-66
2023/04/28 09:16:59;;;;;;;17.80;12.80;;;;;;;;;;4998446;28;20168;-66
2023/04/28 09:19:34;;;;;;;15.80;12.37;;;;;;;;;;5016016;28;20179;-70
2023/04/28 09:22:00;;;;;;;19.17;13.10;;;;;;;;;;5016759;28;20152;-66
2023/04/28 09:24:30;;;;;;;12.67;11.37;;;;;;;;;;5016116;28;20200;-66
2023/04/28 09:26:59;;;;;;;15.23;12.67;;;;;;;;;;4998363;28;20234;-66
2023/04/28 09:29:26;;;;;;;19.80;12.60;;;;;;;;;;5016082;28;20550;-65
2023/04/28 09:31:52;;;;;;;20.90;12.93;;;;;;;;;;5015835;28;20180;-66
2023/04/28 09:34:18;;;;;;;21.83;12.87;;;;;;;;;;4998254;28;20211;-66
2023/04/28 09:36:44;;;;;;;16.27;11.50;;;;;;;;;;4998689;28;20265;-66
2023/04/28 09:39:11;;;;;;;22.47;13.33;;;;;;;;;;4998242;28;20219;-66
2023/04/28 09:41:41;;;;;;;16.47;11.77;;;;;;;;;;5015724;28;20179;-66
2023/04/28 09:44:10;;;;;;;18.43;12.30;;;;;;;;;;5015897;28;20164;-65
2023/04/28 09:46:36;;;;;;;16.10;12.77;;;;;;;;;;5016133;28;20757;-66
2023/04/28 09:49:02;;;;;;;15.70;12.53;;;;;;;;;;5015573;28;20203;-64
2023/04/28 09:51:28;;;;;;;14.03;12.23;;;;;;;;;;5015656;28;20187;-64
2023/04/28 09:53:56;;;;;;;13.73;11.30;;;;;;;;;;5015425;28;20242;-67
2023/04/28 09:56:24;;;;;;;15.37;11.17;;;;;;;;;;5015820;28;20670;-66
2023/04/28 09:58:51;;;;;;;16.97;11.47;;;;;;;;;;4998134;28;20184;-68
2023/04/28 10:01:17;;;;;;;16.47;12.17;;;;;;;;;;5015714;28;20179;-65
2023/04/28 10:03:43;;;;;;;15.03;13.20;;;;;;;;;;5015853;28;20258;-65
2023/04/28 10:06:09;;;;;;;13.27;11.73;;;;;;;;;;5016017;28;20204;-65
2023/04/28 10:08:35;;;;;;;16.83;11.97;;;;;;;;;;4997690;28;20609;-70
2023/04/28 10:11:01;;;;;;;16.80;12.10;;;;;;;;;;5015578;28;20184;-65
2023/04/28 10:13:28;;;;;;;17.40;11.83;;;;;;;;;;5015484;28;20203;-66
2023/04/28 10:15:54;;;;;;;19.97;12.87;;;;;;;;;;5015242;28;20204;-64
2023/04/28 10:18:21;;;;;;;17.17;12.57;;;;;;;;;;5016212;28;20187;-65
2023/04/28 10:20:49;;;;;;;15.60;13.50;;;;;;;;;;5015957;28;20251;-65
2023/04/28 10:23:23;;;;;;;16.03;14.10;;;;;;;;;;5015453;28;20208;-66
2023/04/28 10:25:52;;;;;;;18.73;16.43;;;;;;;;;;5015897;28;20199;-65
2023/04/28 10:28:18;;;;;;;19.80;16.13;;;;;;;;;;4999070;28;20203;-65
2023/04/28 10:31:04;;;;;;;19.43;16.43;;;;;;;;;;5015973;28;20180;-66
2023/04/28 10:33:31;;;;;;;20.43;16.03;;;;;;;;;;5014970;28;20320;-65
2023/04/28 10:35:57;;;;;;;18.30;14.57;;;;;;;;;;5014841;28;20242;-65
2023/04/28 10:38:23;;;;;;;19.03;15.43;;;;;;;;;;4997081;28;20207;-65
2023/04/28 10:40:50;;;;;;;20.80;15.47;;;;;;;;;;4997120;28;20712;-64
2023/04/28 10:43:27;;;;;;;18.77;15.70;;;;;;;;;;4996975;28;20190;-65
2023/04/28 10:45:54;;;;;;;16.37;14.27;;;;;;;;;;5014368;28;20278;-67
2023/04/28 10:48:21;;;;;;;23.57;14.87;;;;;;;;;;4996926;28;20261;-67
2023/04/28 10:51:06;;;;;;;20.53;15.73;;;;;;;;;;5014821;28;20209;-66
2023/04/28 10:53:44;;;;;;;17.83;15.33;;;;;;;;;;4997000;28;20554;-67
2023/04/28 10:56:15;;;;;;;17.77;15.63;;;;;;;;;;5014352;28;20215;-67
2023/04/28 10:58:44;;;;;;;18.50;15.40;;;;;;;;;;4997402;28;20258;-67
2023/04/28 11:01:23;;;;;;;17.67;15.83;;;;;;;;;;5015060;28;20690;-67
2023/04/28 11:03:58;;;;;;;19.40;15.83;;;;;;;;;;5014706;28;20210;-66
2023/04/28 11:06:28;;;;;;;19.87;17.20;;;;;;;;;;4996824;28;20624;-65
2023/04/28 11:08:56;;;;;;;20.33;17.87;;;;;;;;;;5014464;28;20679;-65
2023/04/28 11:11:24;;;;;;;21.70;17.40;;;;;;;;;;5014355;28;20199;-65
2023/04/28 11:13:50;;;;;;;21.30;17.43;;;;;;;;;;5014201;28;20192;-67
2023/04/28 11:16:24;;;;;;;19.33;16.60;;;;;;;;;;5013646;28;20303;-67
2023/04/28 11:19:03;;;;;;;20.80;17.23;;;;;;;;;;4996626;28;20180;-65
2023/04/28 11:21:29;;;;;;;19.90;16.93;;;;;;;;;;4995851;28;20183;-65
2023/04/28 11:23:56;;;;;;;22.07;16.33;;;;;;;;;;5014304;28;20654;-67
2023/04/28 11:26:22;;;;;;;15.87;14.20;;;;;;;;;;5013874;28;20582;-66
2023/04/28 11:28:49;;;;;;;16.50;14.97;;;;;;;;;;5013891;28;20188;-66
2023/04/28 11:31:18;;;;;;;16.10;14.50;;;;;;;;;;5013989;28;20190;-67
2023/04/28 11:33:45;;;;;;;15.17;13.60;;;;;;;;;;5014037;28;20229;-67
2023/04/28 11:36:28;;;;;;;15.53;13.93;;;;;;;;;;4996255;28;20703;-67
2023/04/28 11:38:55;;;;;;;17.40;15.60;;;;;;;;;;4996383;28;20179;-66
2023/04/28 11:41:22;;;;;;;18.30;16.40;;;;;;;;;;5013700;28;20546;-66
2023/04/28 11:43:48;;;;;;;19.37;17.23;;;;;;;;;;5014112;28;20728;-66
2023/04/28 11:46:17;;;;;;;19.87;18.07;;;;;;;;;;5013918;28;20685;-67
2023/04/28 11:48:44;;;;;;;19.27;17.57;;;;;;;;;;4996152;28;20183;-66
2023/04/28 11:51:10;;;;;;;18.03;16.43;;;;;;;;;;5013676;28;20203;-66
2023/04/28 11:53:43;;;;;;;21.53;19.43;;;;;;;;;;5014023;28;20616;-66
2023/04/28 11:56:09;;;;;;;22.90;20.43;;;;;;;;;;4996023;28;20266;-66
2023/04/28 11:58:35;;;;;;;24.30;21.77;;;;;;;;;;5013815;28;20187;-66
2023/04/28 12:01:08;;;;;;;22.23;20.03;;;;;;;;;;5013597;28;20268;-66
2023/04/28 12:03:54;;;;;;;19.03;17.33;;;;;;;;;;5013347;28;20188;-66
2023/04/28 12:06:20;;;;;;;18.37;16.60;;;;;;;;;;4995785;28;20298;-66
2023/04/28 12:08:46;;;;;;;13.80;12.53;;;;;;;;;;5013269;28;20195;-67
2023/04/28 12:11:13;;;;;;;11.93;10.93;;;;;;;;;;5042483;23;20608;-71
2023/04/28 12:13:40;;;;;;;12.07;10.97;;;;;;;;;;5034595;28;20203;-71
2023/04/28 12:16:06;;;;;;;12.80;11.60;;;;;;;;;;5034735;28;20542;-71
2023/04/28 12:18:33;;;;;;;13.33;12.17;;;;;;;;;;5015658;28;20269;-72
2023/04/28 12:20:59;;;;;;;11.63;10.63;;;;;;;;;;5033868;28;20195;-71
2023/04/28 12:23:32;;;;;;;12.00;11.00;;;;;;;;;;5018642;28;20187;-72
2023/04/28 12:25:58;;;;;;;13.33;11.90;;;;;;;;;;5039435;28;20245;-71
2023/04/28 12:28:36;;;;;;;12.60;11.43;;;;;;;;;;5037175;28;20248;-72
2023/04/28 12:31:03;;;;;;;12.57;11.57;;;;;;;;;;5033772;28;20669;-71
2023/04/28 12:33:29;;;;;;;11.73;10.67;;;;;;;;;;5019730;28;20210;-72
2023/04/28 12:35:56;;;;;;;11.13;10.00;;;;;;;;;;5037233;28;20548;-72
2023/04/28 12:38:23;;;;;;;9.60;8.80;;;;;;;;;;5037339;28;20175;-72
2023/04/28 12:40:49;;;;;;;9.43;8.53;;;;;;;;;;5037129;28;20627;-72
2023/04/28 12:43:15;;;;;;;10.23;9.33;;;;;;;;;;5036961;28;20211;-72
2023/04/28 12:45:41;;;;;;;9.40;8.70;;;;;;;;;;5019061;28;20187;-72
2023/04/28 12:48:07;;;;;;;9.50;8.70;;;;;;;;;;5036441;28;20180;-72
2023/04/28 12:50:33;;;;;;;10.10;9.10;;;;;;;;;;5036282;28;20252;-72
2023/04/28 12:52:59;;;;;;;8.97;8.27;;;;;;;;;;5018359;28;20353;-73
2023/04/28 12:55:26;;;;;;;9.03;8.23;;;;;;;;;;5036458;28;20228;-71
2023/04/28 12:57:52;;;;;;;8.70;8.10;;;;;;;;;;5036748;28;20168;-73
2023/04/28 13:00:22;;;;;;;10.33;9.43;;;;;;;;;;5018679;28;20218;-71
2023/04/28 13:02:48;;;;;;;10.13;9.13;;;;;;;;;;5036376;28;20573;-72
2023/04/28 13:05:14;;;;;;;9.37;8.67;;;;;;;;;;5018295;28;20295;-72
2023/04/28 13:07:40;;;;;;;10.13;9.23;;;;;;;;;;5036419;28;20209;-72
2023/04/28 13:10:06;;;;;;;10.33;9.43;;;;;;;;;;5018585;28;20211;-72
2023/04/28 13:12:32;;;;;;;10.37;9.50;;;;;;;;;;5036187;28;20225;-72
2023/04/28 13:14:59;;;;;;;9.80;9.00;;;;;;;;;;5018500;28;20721;-71
2023/04/28 13:17:26;;;;;;;8.97;8.17;;;;;;;;;;5018139;28;20542;-72
2023/04/28 13:19:52;;;;;;;9.00;8.10;;;;;;;;;;5036099;28;20219;-72
2023/04/28 13:22:18;;;;;;;9.43;8.50;;;;;;;;;;5035653;28;20206;-72
2023/04/28 13:24:44;;;;;;;9.07;8.27;;;;;;;;;;5035639;28;20230;-71
2023/04/28 13:27:10;;;;;;;8.50;7.80;;;;;;;;;;5017912;28;20187;-72
2023/04/28 13:29:36;;;;;;;8.60;7.90;;;;;;;;;;5017996;28;20233;-74
2023/04/28 13:32:04;;;;;;;8.50;7.80;;;;;;;;;;5018204;28;20551;-72
2023/04/28 13:34:30;;;;;;;9.20;8.40;;;;;;;;;;5018065;28;20218;-72
2023/04/28 13:36:56;;;;;;;8.43;7.73;;;;;;;;;;5036123;28;20654;-73
2023/04/28 13:39:22;;;;;;;8.43;7.73;;;;;;;;;;5035520;28;20198;-72
2023/04/28 13:41:48;;;;;;;8.30;7.40;;;;;;;;;;5019704;28;20183;-73
2023/04/28 13:44:14;;;;;;;8.47;7.60;;;;;;;;;;5038313;28;20179;-73
2023/04/28 13:46:41;;;;;;;8.17;7.50;;;;;;;;;;5037527;28;20555;-72
2023/04/28 13:49:07;;;;;;;8.07;7.40;;;;;;;;;;5022337;28;20229;-73
2023/04/28 13:51:33;;;;;;;8.50;7.80;;;;;;;;;;5019443;28;20210;-72
2023/04/28 13:54:00;;;;;;;8.33;7.63;;;;;;;;;;5018869;28;20210;-73
2023/04/28 13:56:26;;;;;;;7.97;7.27;;;;;;;;;;5036385;28;20186;-73
2023/04/28 13:58:52;;;;;;;8.87;8.07;;;;;;;;;;5036308;28;20206;-72
2023/04/28 14:01:18;;;;;;;8.93;8.03;;;;;;;;;;5036265;28;20214;-73
2023/04/28 14:03:44;;;;;;;9.23;8.30;;;;;;;;;;5019476;28;20183;-72
2023/04/28 14:06:10;;;;;;;9.47;8.63;;;;;;;;;;5038396;28;20214;-72
2023/04/28 14:08:36;;;;;;;9.20;8.30;;;;;;;;;;5037118;28;20182;-74
2023/04/28 14:11:02;;;;;;;8.67;7.97;;;;;;;;;;5020024;28;20650;-72
2023/04/28 14:13:28;;;;;;;8.67;7.97;;;;;;;;;;5021661;28;20751;-72
2023/04/28 14:15:54;;;;;;;7.63;6.93;;;;;;;;;;5020226;28;20186;-75
2023/04/28 14:18:20;;;;;;;5.93;5.27;;;;;;;;;;5036482;28;20171;-73